Time;durP1;ratioP1;P1;durP2;ratioP2;P2;SDS_P1;SDS_P2;PMS_P1;PMS_P2;Temp;Humidity;BMP_temperature;BMP_pressure;BME280_temperature;BME280_humidity;BME280_pressure;Samples;Min_cycle;Max_cycle;Signal;HPM_P1;HPM_P2
2023/02/07 00:01:43;;;;;;;;;21.00;21.00;;;;;;;;6488253;46;8892;-64
2023/02/07 00:07:45;;;;;;;;;23.33;20.67;;;;;;;;6533064;36;9066;-64
2023/02/07 00:13:51;;;;;;;;;18.33;18.00;;;;;;;;6488380;31;8923;-63
2023/02/07 00:19:54;;;;;;;;;16.67;13.67;;;;;;;;6487476;36;8878;-65
2023/02/07 00:25:56;;;;;;;;;21.00;16.00;;;;;;;;6487995;31;8957;-65
2023/02/07 00:32:00;;;;;;;;;22.00;17.50;;;;;;;;6487946;31;8869;-67
2023/02/07 00:38:02;;;;;;;;;17.33;15.67;;;;;;;;6487170;39;8994;-66
2023/02/07 00:44:07;;;;;;;;;18.00;16.00;;;;;;;;6488044;39;8869;-64
2023/02/07 00:50:12;;;;;;;;;15.00;15.00;;;;;;;;6487342;46;8981;-66
2023/02/07 00:56:14;;;;;;;;;15.50;15.50;;;;;;;;6486630;46;8870;-65
2023/02/07 01:02:17;;;;;;;;;27.00;18.75;;;;;;;;6487458;46;8999;-66
2023/02/07 01:08:19;;;;;;;;;16.50;16.50;;;;;;;;6486486;31;8878;-64
2023/02/07 01:14:21;;;;;;;;;17.67;17.33;;;;;;;;6486926;46;8893;-67
2023/02/07 01:20:24;;;;;;;;;19.67;17.33;;;;;;;;6486920;46;8967;-66
2023/02/07 01:26:27;;;;;;;;;21.25;18.00;;;;;;;;6487183;39;8963;-65
2023/02/07 01:32:32;;;;;;;;;12.75;12.75;;;;;;;;6486694;39;8876;-65
2023/02/07 01:38:36;;;;;;;;;11.00;10.00;;;;;;;;6486529;39;9511;-67
2023/02/07 01:44:40;;;;;;;;;13.00;12.33;;;;;;;;6488064;39;8939;-66
2023/02/07 01:50:47;;;;;;;;;12.25;12.25;;;;;;;;6486809;39;8888;-63
2023/02/07 01:56:57;;;;;;;;;18.00;14.00;;;;;;;;6486398;47;8879;-66
2023/02/07 02:03:00;;;;;;;;;12.25;11.00;;;;;;;;6486859;39;9642;-64
2023/02/07 02:09:09;;;;;;;;;13.00;13.00;;;;;;;;6485633;47;8884;-64
2023/02/07 02:15:30;;;;;;;;;10.00;10.00;;;;;;;;6486807;39;9079;-65
2023/02/07 02:22:07;;;;;;;;;9.67;9.67;;;;;;;;6486980;39;8985;-64
2023/02/07 02:28:36;;;;;;;;;7.67;7.00;;;;;;;;6486552;39;8923;-64
2023/02/07 02:34:59;;;;;;;;;5.33;5.33;;;;;;;;6486307;31;9525;-66
2023/02/07 02:41:23;;;;;;;;;12.00;9.67;;;;;;;;6486660;47;8903;-65
2023/02/07 02:47:29;;;;;;;;;12.67;10.33;;;;;;;;6487215;39;9059;-65
2023/02/07 02:53:32;;;;;;;;;11.00;9.33;;;;;;;;6488167;39;9550;-66
2023/02/07 03:00:00;;;;;;;;;15.00;13.00;;;;;;;;6488101;31;8919;-66
2023/02/07 03:06:15;;;;;;;;;16.00;10.33;;;;;;;;6487629;46;8907;-65
2023/02/07 03:12:31;;;;;;;;;12.00;12.00;;;;;;;;6487677;46;8923;-65
2023/02/07 03:18:55;;;;;;;;;15.00;15.00;;;;;;;;6308025;39;10001238;-65
2023/02/07 03:25:01;;;;;;;;;16.00;14.33;;;;;;;;6488720;31;8872;-65
2023/02/07 03:31:09;;;;;;;;;18.00;16.00;;;;;;;;6487378;31;8891;-63
2023/02/07 03:37:22;;;;;;;;;14.67;11.33;;;;;;;;6488342;46;8899;-65
2023/02/07 03:43:32;;;;;;;;;12.00;10.00;;;;;;;;6488224;39;8949;-64
2023/02/07 03:49:34;;;;;;;;;10.67;10.67;;;;;;;;6488982;31;8930;-65
2023/02/07 03:55:38;;;;;;;;;17.00;14.67;;;;;;;;6489038;31;8884;-64
2023/02/07 04:01:41;;;;;;;;;16.67;12.67;;;;;;;;6488732;46;9114;-64
2023/02/07 04:07:45;;;;;;;;;12.00;12.00;;;;;;;;6487659;46;8902;-64
2023/02/07 04:13:50;;;;;;;;;21.00;12.33;;;;;;;;6488019;39;8967;-64
2023/02/07 04:19:53;;;;;;;;;16.00;14.33;;;;;;;;6487494;46;9049;-65
2023/02/07 04:25:56;;;;;;;;;13.00;13.00;;;;;;;;6487958;31;9651;-63
2023/02/07 04:32:00;;;;;;;;;12.00;12.00;;;;;;;;6487751;31;8990;-64
2023/02/07 04:38:03;;;;;;;;;13.00;10.00;;;;;;;;6488277;31;8883;-64
2023/02/07 04:44:05;;;;;;;;;15.67;15.00;;;;;;;;6487129;46;8958;-64
2023/02/07 04:50:07;;;;;;;;;10.67;10.67;;;;;;;;6487945;46;8892;-64
2023/02/07 04:56:10;;;;;;;;;5.00;4.00;;;;;;;;6488089;39;8860;-64
2023/02/07 05:02:12;;;;;;;;;15.67;15.00;;;;;;;;6456610;39;9020;-61
2023/02/07 05:08:14;;;;;;;;;13.00;13.00;;;;;;;;6492002;39;8995;-60
